Dores do Indaia, Brazil
Current Conditions -  °F | °C
As of 12:00 PM on Friday 28 Nov 2014 (Local Time) from SBAX Reporting Station
Drizzle Drizzle  
Wind Chill: 72°   Ceiling: 200
Heat Index: 72°   Visibility: 1.5mi
Dew Point: 72°   Wind: 12mph
Humidity: 100%   Direction: 30°NNE
Pressure: 30.12"   Gusts: NA
Location:  19.46°S, 45.6°W
Report Text: SBAX 281400Z 03010KT 2500 -DZ BR BKN002 OVC005 22/22 Q1020
Loading
Personal Weather Stations






























Interactive Weather Map New forecast layout! Learn more

10-Day Weather Forecast

Advertisements
Track Severe Weather on mobile